Time;durP1;ratioP1;P1;durP2;ratioP2;P2;SDS_P1;SDS_P2;PMS_P1;PMS_P2;Temp;Humidity;BMP_temperature;BMP_pressure;BME280_temperature;BME280_humidity;BME280_pressure;Samples;Min_cycle;Max_cycle;Signal;HPM_P1;HPM_P2
2021/07/25 00:00:44;;;;;;;21.25;18.42;;;20.30;99.90;;;;;;5029156;28;20086;-44
2021/07/25 00:03:09;;;;;;;22.95;20.10;;;20.30;99.90;;;;;;5020395;28;20059;-43
2021/07/25 00:05:36;;;;;;;22.65;20.25;;;20.30;99.90;;;;;;5008965;28;20050;-41
2021/07/25 00:08:02;;;;;;;22.25;18.95;;;20.20;99.90;;;;;;5021220;28;20550;-44
2021/07/25 00:10:27;;;;;;;23.58;20.83;;;20.20;99.90;;;;;;5008130;28;20105;-43
2021/07/25 00:12:53;;;;;;;21.92;19.05;;;20.20;99.90;;;;;;5019945;28;20112;-44
2021/07/25 00:15:19;;;;;;;23.77;20.48;;;20.20;99.90;;;;;;5009738;28;20061;-43
2021/07/25 00:17:45;;;;;;;23.80;21.20;;;20.20;99.90;;;;;;5016454;28;20488;-39
2021/07/25 00:20:20;;;;;;;23.40;20.90;;;20.20;99.90;;;;;;5028217;28;20105;-43
2021/07/25 00:22:52;;;;;;;24.13;21.27;;;20.20;99.90;;;;;;5020641;28;20036;-43
2021/07/25 00:25:23;;;;;;;24.05;20.50;;;20.20;99.90;;;;;;5024211;28;20072;-42
2021/07/25 00:27:54;;;;;;;22.73;20.33;;;20.20;99.90;;;;;;5022307;28;20380;-43
2021/07/25 00:30:22;;;;;;;24.45;21.08;;;20.20;99.90;;;;;;5022594;28;20095;-43
2021/07/25 00:32:49;;;;;;;24.55;20.90;;;20.20;99.90;;;;;;5023785;28;20018;-42
2021/07/25 00:35:17;;;;;;;24.27;21.58;;;20.20;99.90;;;;;;5020496;28;20017;-41
2021/07/25 00:37:43;;;;;;;25.80;23.05;;;20.20;99.90;;;;;;5025124;28;20030;-43
2021/07/25 00:40:13;;;;;;;25.08;22.30;;;20.10;99.90;;;;;;5018094;28;20037;-43
2021/07/25 00:42:39;;;;;;;24.10;21.48;;;20.10;99.90;;;;;;5026725;28;20033;-43
2021/07/25 00:45:06;;;;;;;23.98;21.42;;;20.20;99.90;;;;;;5017722;28;20017;-41
2021/07/25 00:47:33;;;;;;;23.25;20.75;;;20.20;99.90;;;;;;5026765;28;20022;-40
2021/07/25 00:49:58;;;;;;;22.85;19.73;;;20.10;99.90;;;;;;5017546;28;20030;-42
2021/07/25 00:52:23;;;;;;;21.92;19.63;;;20.10;99.90;;;;;;5030765;28;20082;-43
2021/07/25 00:54:49;;;;;;;23.15;20.02;;;20.10;99.90;;;;;;5018859;28;20021;-40
2021/07/25 00:57:15;;;;;;;22.75;20.25;;;20.10;99.90;;;;;;5032453;28;20029;-42
2021/07/25 00:59:40;;;;;;;22.48;19.42;;;20.10;99.90;;;;;;5019154;28;20026;-44
2021/07/25 01:02:06;;;;;;;24.58;21.10;;;20.10;99.90;;;;;;5032394;28;20030;-43
2021/07/25 01:05:02;;;;;;;25.58;20.20;;;20.10;99.90;;;;;;5021195;28;20103;-42
2021/07/25 01:07:39;;;;;;;22.58;19.38;;;20.00;99.90;;;;;;4992311;28;20598;-43
2021/07/25 01:10:13;;;;;;;24.02;20.92;;;20.10;99.90;;;;;;5021965;28;20073;-43
2021/07/25 01:12:52;;;;;;;22.48;20.08;;;20.00;99.90;;;;;;5011917;28;20493;-42
2021/07/25 01:15:21;;;;;;;22.00;19.65;;;20.00;99.90;;;;;;5024465;28;20095;-43
2021/07/25 01:17:47;;;;;;;23.13;19.95;;;20.00;99.90;;;;;;5012321;28;20548;-44
2021/07/25 01:20:13;;;;;;;21.67;18.95;;;20.00;99.90;;;;;;5023387;28;20120;-43
2021/07/25 01:22:41;;;;;;;21.50;19.13;;;19.90;99.90;;;;;;5012408;28;20037;-44
2021/07/25 01:25:09;;;;;;;21.77;19.40;;;19.90;99.90;;;;;;5021951;28;20029;-42
2021/07/25 01:28:02;;;;;;;21.67;19.50;;;19.90;99.90;;;;;;5013661;28;20026;-40
2021/07/25 01:30:40;;;;;;;22.63;19.88;;;19.90;99.90;;;;;;5022445;28;20033;-44
2021/07/25 01:33:11;;;;;;;23.15;20.65;;;19.90;99.90;;;;;;4992287;28;20039;-43
2021/07/25 01:35:38;;;;;;;21.65;19.35;;;19.90;99.90;;;;;;5017634;28;20060;-43
2021/07/25 01:38:07;;;;;;;19.80;17.55;;;19.80;99.90;;;;;;5013562;28;20045;-40
2021/07/25 01:40:32;;;;;;;21.73;19.27;;;19.80;99.90;;;;;;5018697;28;20053;-44
2021/07/25 01:43:01;;;;;;;23.45;20.25;;;19.80;99.90;;;;;;5016015;28;20509;-39
2021/07/25 01:45:27;;;;;;;22.95;20.48;;;19.80;99.90;;;;;;5017411;28;20057;-43
2021/07/25 01:47:53;;;;;;;22.05;19.63;;;19.70;99.90;;;;;;5017136;28;20115;-44
2021/07/25 01:50:18;;;;;;;23.15;20.75;;;19.80;99.90;;;;;;5015190;28;20412;-43
2021/07/25 01:52:44;;;;;;;25.30;20.80;;;19.80;99.90;;;;;;5019422;28;20026;-44
2021/07/25 01:55:11;;;;;;;22.92;20.45;;;19.80;99.90;;;;;;5012615;28;20026;-44
2021/07/25 01:57:36;;;;;;;22.70;20.30;;;19.80;99.90;;;;;;5022200;28;20427;-39
2021/07/25 02:00:07;;;;;;;25.45;22.05;;;19.80;99.90;;;;;;5013032;28;20240;-43
2021/07/25 02:02:33;;;;;;;27.27;22.30;;;19.80;99.90;;;;;;5020970;28;20490;-43
2021/07/25 02:04:58;;;;;;;24.58;21.77;;;19.70;99.90;;;;;;5012213;28;20038;-44
2021/07/25 02:07:23;;;;;;;28.10;21.88;;;19.70;99.90;;;;;;5022114;28;20113;-41
2021/07/25 02:09:52;;;;;;;22.45;20.05;;;19.70;99.90;;;;;;5011045;28;20038;-42
2021/07/25 02:12:20;;;;;;;23.85;21.38;;;19.70;99.90;;;;;;5023775;28;20053;-44
2021/07/25 02:14:45;;;;;;;22.50;20.10;;;19.60;99.90;;;;;;5010601;28;20513;-44
2021/07/25 02:17:11;;;;;;;24.50;21.88;;;19.70;99.90;;;;;;5022724;28;20029;-41
2021/07/25 02:19:37;;;;;;;22.92;20.25;;;19.70;99.90;;;;;;5020258;28;20038;-43
2021/07/25 02:22:03;;;;;;;26.00;21.58;;;19.60;99.90;;;;;;5020927;28;20013;-43
2021/07/25 02:24:29;;;;;;;23.98;20.02;;;19.60;99.90;;;;;;5027968;28;20424;-43
2021/07/25 02:26:54;;;;;;;24.98;22.08;;;19.60;99.90;;;;;;5023575;28;20473;-43
2021/07/25 02:29:20;;;;;;;25.80;21.75;;;19.60;99.90;;;;;;5024932;28;20033;-42
2021/07/25 02:31:46;;;;;;;25.40;21.83;;;19.60;99.90;;;;;;5026105;28;20355;-40
2021/07/25 02:34:14;;;;;;;24.52;21.92;;;19.60;99.90;;;;;;5022924;28;20071;-41
2021/07/25 02:36:40;;;;;;;23.15;20.73;;;19.60;99.90;;;;;;5026311;28;20473;-43
2021/07/25 02:39:06;;;;;;;25.00;21.60;;;19.50;99.90;;;;;;5020768;28;20080;-43
2021/07/25 02:41:32;;;;;;;23.70;21.10;;;19.50;99.90;;;;;;5027930;28;20394;-43
2021/07/25 02:43:58;;;;;;;23.38;20.10;;;19.50;99.90;;;;;;5019514;28;20489;-43
2021/07/25 02:46:23;;;;;;;24.98;20.23;;;19.50;99.90;;;;;;5028331;28;20040;-44
2021/07/25 02:48:49;;;;;;;25.00;21.50;;;19.40;99.90;;;;;;5019385;28;20021;-41
2021/07/25 02:51:15;;;;;;;24.00;21.10;;;19.40;99.90;;;;;;5030196;28;20477;-40
2021/07/25 02:53:43;;;;;;;23.67;21.15;;;19.40;99.90;;;;;;5016898;28;20092;-43
2021/07/25 02:56:08;;;;;;;24.73;19.95;;;19.40;99.90;;;;;;5030398;28;20036;-42
2021/07/25 02:58:34;;;;;;;25.67;21.13;;;19.30;99.90;;;;;;5017402;28;20025;-43
2021/07/25 03:01:08;;;;;;;23.77;20.50;;;19.30;99.90;;;;;;5030104;28;20121;-43
2021/07/25 03:03:33;;;;;;;21.60;19.30;;;19.30;99.90;;;;;;5018322;28;20429;-44
2021/07/25 03:05:59;;;;;;;21.00;18.83;;;19.30;99.90;;;;;;5027711;28;20087;-40
2021/07/25 03:08:24;;;;;;;25.15;21.08;;;19.30;99.90;;;;;;5021357;28;20034;-39
2021/07/25 03:10:50;;;;;;;25.02;21.15;;;19.20;99.90;;;;;;5026015;28;20049;-44
2021/07/25 03:13:15;;;;;;;25.88;22.42;;;19.10;99.90;;;;;;5022573;28;20041;-43
2021/07/25 03:15:41;;;;;;;23.10;20.63;;;19.10;99.90;;;;;;5023013;28;20128;-43
2021/07/25 03:18:09;;;;;;;27.77;22.70;;;19.10;99.90;;;;;;5026045;28;20116;-40
2021/07/25 03:20:34;;;;;;;25.35;21.17;;;19.10;99.90;;;;;;5025399;28;20022;-42
2021/07/25 03:23:00;;;;;;;23.33;20.25;;;19.10;99.90;;;;;;5028652;28;20029;-43
2021/07/25 03:25:25;;;;;;;24.40;20.90;;;19.10;99.90;;;;;;5018211;28;20385;-44
2021/07/25 03:27:51;;;;;;;23.67;19.65;;;19.00;99.90;;;;;;5028358;28;20029;-44
2021/07/25 03:30:16;;;;;;;24.55;20.73;;;19.00;99.90;;;;;;5018538;28;20117;-41
2021/07/25 03:32:42;;;;;;;23.25;20.67;;;19.00;99.90;;;;;;5028520;28;20025;-43
2021/07/25 03:35:08;;;;;;;23.50;20.95;;;19.00;99.90;;;;;;5016353;28;20022;-43
2021/07/25 03:37:34;;;;;;;23.70;21.08;;;19.00;99.90;;;;;;5028624;28;20030;-44
2021/07/25 03:39:59;;;;;;;25.75;22.85;;;19.00;99.90;;;;;;5016755;28;20080;-43
2021/07/25 03:42:28;;;;;;;26.80;22.55;;;19.00;99.90;;;;;;5028316;28;20052;-43
2021/07/25 03:44:53;;;;;;;27.20;22.65;;;19.00;99.90;;;;;;5018566;28;20022;-40
2021/07/25 03:47:19;;;;;;;25.25;21.15;;;19.10;99.90;;;;;;5026487;28;20028;-43
2021/07/25 03:49:45;;;;;;;24.00;21.40;;;19.10;99.90;;;;;;5020982;28;20473;-44
2021/07/25 03:52:12;;;;;;;25.15;21.90;;;19.00;99.90;;;;;;5024906;28;20022;-43
2021/07/25 03:54:42;;;;;;;24.02;21.52;;;19.10;99.90;;;;;;5022423;28;20469;-42
2021/07/25 03:57:08;;;;;;;24.50;21.90;;;19.10;99.90;;;;;;5023356;28;20057;-44
2021/07/25 03:59:34;;;;;;;22.75;20.30;;;19.10;99.90;;;;;;5024979;28;20040;-42
2021/07/25 04:01:59;;;;;;;23.85;21.27;;;19.20;99.90;;;;;;5019662;28;20021;-41
2021/07/25 04:04:25;;;;;;;24.17;21.02;;;19.10;99.90;;;;;;5026839;28;20477;-44
2021/07/25 04:06:53;;;;;;;22.90;20.42;;;19.10;99.90;;;;;;5017886;28;20103;-41
2021/07/25 04:09:21;;;;;;;23.10;20.60;;;19.10;99.90;;;;;;5026865;28;20048;-40
2021/07/25 04:11:51;;;;;;;23.25;20.65;;;19.00;99.90;;;;;;5017264;28;20108;-42
2021/07/25 04:14:16;;;;;;;23.13;20.33;;;19.00;99.90;;;;;;5027347;28;20496;-44
2021/07/25 04:16:48;;;;;;;23.25;20.35;;;19.00;99.90;;;;;;5015958;28;20045;-44
2021/07/25 04:19:14;;;;;;;;;;;19.00;99.90;;;;;;5023848;28;20025;-43
2021/07/25 04:21:40;;;;;;;22.92;19.83;;;19.00;99.90;;;;;;5020286;28;19916;-44
2021/07/25 04:24:05;;;;;;;23.38;20.10;;;19.00;99.90;;;;;;5008353;28;20490;-42
2021/07/25 04:26:31;;;;;;;22.27;19.98;;;19.00;99.90;;;;;;5020537;28;20128;-44
2021/07/25 04:28:57;;;;;;;24.35;20.40;;;19.00;99.90;;;;;;5008604;28;20026;-43
2021/07/25 04:31:25;;;;;;;23.50;20.35;;;19.00;99.90;;;;;;5017226;28;20076;-43
2021/07/25 04:33:53;;;;;;;22.05;19.70;;;19.00;99.90;;;;;;5010855;28;20022;-44
2021/07/25 04:36:26;;;;;;;21.58;18.73;;;19.10;99.90;;;;;;5016212;28;20029;-42
2021/07/25 04:38:53;;;;;;;21.10;18.77;;;19.00;99.90;;;;;;5011227;28;20061;-38
2021/07/25 04:41:22;;;;;;;21.77;19.45;;;19.10;99.90;;;;;;5014891;28;20020;-41
2021/07/25 04:43:54;;;;;;;24.05;19.27;;;19.10;99.90;;;;;;5013195;28;20469;-44
2021/07/25 04:46:28;;;;;;;21.38;19.10;;;19.20;99.90;;;;;;5014164;28;20025;-44
2021/07/25 04:49:16;;;;;;;23.45;19.40;;;19.20;99.90;;;;;;5007132;28;20034;-44
2021/07/25 04:51:44;;;;;;;20.90;18.67;;;19.30;99.90;;;;;;5014120;28;20068;-43
2021/07/25 04:54:15;;;;;;;20.95;18.75;;;19.40;99.90;;;;;;5014463;28;20028;-44
2021/07/25 04:57:01;;;;;;;21.00;18.17;;;19.40;99.90;;;;;;5013296;28;20093;-41
2021/07/25 04:59:30;;;;;;;18.33;16.33;;;19.40;99.90;;;;;;5012361;28;20068;-44
2021/07/25 05:02:04;;;;;;;15.73;14.00;;;19.40;99.90;;;;;;5014255;28;20742;-43
2021/07/25 05:04:31;;;;;;;19.85;17.38;;;19.50;99.90;;;;;;5012609;28;20389;-43
2021/07/25 05:06:57;;;;;;;19.58;16.27;;;19.50;99.90;;;;;;5012163;28;20068;-43
2021/07/25 05:09:23;;;;;;;18.92;16.92;;;19.60;99.90;;;;;;5015621;28;20038;-44
2021/07/25 05:12:01;;;;;;;19.55;17.27;;;19.60;99.90;;;;;;5010556;28;20018;-43
2021/07/25 05:14:56;;;;;;;18.45;16.45;;;19.60;99.90;;;;;;5016013;28;20080;-44
2021/07/25 05:17:29;;;;;;;17.90;15.13;;;19.50;99.90;;;;;;4991461;28;20477;-44
2021/07/25 05:20:04;;;;;;;;;;;19.60;99.90;;;;;;5024108;28;20288;-43
2021/07/25 05:22:42;;;;;;;16.23;14.27;;;19.50;99.90;;;;;;5022659;28;19905;-44
2021/07/25 05:25:08;;;;;;;16.27;14.55;;;19.50;99.90;;;;;;5022302;28;20029;-41
2021/07/25 05:27:43;;;;;;;16.20;14.30;;;19.50;99.90;;;;;;5022967;28;20029;-44
2021/07/25 05:30:10;;;;;;;21.27;16.00;;;19.50;99.90;;;;;;5021374;28;20041;-44
2021/07/25 05:32:36;;;;;;;17.83;15.80;;;19.60;99.90;;;;;;5023571;28;20560;-43
2021/07/25 05:35:05;;;;;;;17.55;15.10;;;19.60;99.90;;;;;;5018522;28;20108;-44
2021/07/25 05:37:31;;;;;;;16.70;15.00;;;19.60;99.90;;;;;;5028692;28;20030;-43
2021/07/25 05:39:57;;;;;;;14.95;13.05;;;19.70;99.90;;;;;;5020443;28;20029;-43
2021/07/25 05:42:22;;;;;;;16.00;13.30;;;19.70;99.90;;;;;;5029689;28;20145;-42
2021/07/25 05:44:57;;;;;;;15.95;14.35;;;19.70;99.90;;;;;;5020812;28;20372;-43
2021/07/25 05:47:22;;;;;;;15.27;13.68;;;19.60;99.90;;;;;;5028673;28;20117;-41
2021/07/25 05:49:54;;;;;;;13.93;12.15;;;19.70;99.90;;;;;;5020029;28;20575;-42
2021/07/25 05:52:41;;;;;;;14.30;12.05;;;19.90;99.90;;;;;;5031786;28;20025;-43
2021/07/25 05:55:07;;;;;;;13.70;11.95;;;20.00;99.90;;;;;;5003582;28;20128;-43
2021/07/25 05:57:32;;;;;;;13.25;11.85;;;20.10;99.90;;;;;;5030894;28;20097;-44
2021/07/25 05:59:59;;;;;;;13.05;11.75;;;20.20;99.90;;;;;;5018784;28;20029;-43
2021/07/25 06:02:25;;;;;;;13.45;11.13;;;20.40;99.90;;;;;;5030246;28;20032;-44
2021/07/25 06:04:50;;;;;;;10.57;9.57;;;20.40;99.90;;;;;;5019004;28;20045;-43
2021/07/25 06:07:16;;;;;;;13.18;10.95;;;20.50;99.90;;;;;;5031569;28;20030;-42
2021/07/25 06:09:41;;;;;;;10.32;9.23;;;20.60;99.90;;;;;;5019959;28;20030;-42
2021/07/25 06:12:19;;;;;;;11.65;9.90;;;20.70;99.90;;;;;;5028626;28;20473;-44
2021/07/25 06:14:44;;;;;;;11.48;10.18;;;20.90;99.90;;;;;;5020961;28;20470;-44
2021/07/25 06:17:10;;;;;;;11.52;10.38;;;20.90;99.90;;;;;;5028210;28;20080;-40
2021/07/25 06:19:35;;;;;;;11.52;10.40;;;21.00;99.90;;;;;;5022556;28;20050;-41
2021/07/25 06:22:04;;;;;;;10.93;9.70;;;21.00;99.90;;;;;;5026841;28;20465;-44
2021/07/25 06:24:30;;;;;;;12.07;9.25;;;21.10;99.90;;;;;;5026011;28;20018;-43
2021/07/25 06:26:55;;;;;;;10.63;9.02;;;21.10;99.90;;;;;;5023116;28;20278;-44
2021/07/25 06:29:21;;;;;;;10.10;8.93;;;21.10;99.90;;;;;;5028378;28;20034;-41
2021/07/25 06:31:46;;;;;;;11.60;9.23;;;21.20;99.90;;;;;;5019774;28;20520;-43
2021/07/25 06:34:12;;;;;;;9.68;8.75;;;21.20;99.90;;;;;;5028808;28;20048;-44
2021/07/25 06:36:37;;;;;;;9.63;8.63;;;21.20;99.90;;;;;;5018983;28;20013;-42
2021/07/25 06:39:03;;;;;;;9.52;8.52;;;21.10;99.90;;;;;;5030315;28;20431;-41
2021/07/25 06:41:31;;;;;;;9.55;8.60;;;21.00;99.90;;;;;;5017815;28;20060;-41
2021/07/25 06:43:56;;;;;;;9.25;8.35;;;20.90;99.90;;;;;;5030441;28;20490;-44
2021/07/25 06:46:22;;;;;;;10.43;8.77;;;20.90;99.90;;;;;;5016748;28;20105;-43
2021/07/25 06:48:47;;;;;;;9.77;8.60;;;20.70;99.90;;;;;;5029060;28;20028;-44
2021/07/25 06:51:13;;;;;;;8.10;7.35;;;20.70;99.90;;;;;;5019203;28;20038;-43
2021/07/25 06:53:40;;;;;;;10.63;9.50;;;20.60;99.90;;;;;;5028660;28;20120;-43
2021/07/25 06:56:08;;;;;;;11.27;8.95;;;20.60;99.90;;;;;;5021378;28;20021;-43
2021/07/25 06:58:34;;;;;;;10.85;9.32;;;20.60;99.90;;;;;;5000345;28;20101;-43
2021/07/25 07:00:59;;;;;;;9.05;8.15;;;20.50;99.90;;;;;;5008231;28;20193;-38
2021/07/25 07:03:25;;;;;;;10.13;9.13;;;20.50;99.90;;;;;;5015036;28;20025;-42
2021/07/25 07:05:51;;;;;;;8.98;8.07;;;20.50;99.90;;;;;;5010863;28;20069;-44
2021/07/25 07:08:16;;;;;;;9.15;7.68;;;20.50;99.90;;;;;;5018749;28;20030;-43
2021/07/25 07:10:46;;;;;;;8.75;7.50;;;20.50;99.90;;;;;;5009544;28;20046;-39
2021/07/25 07:13:14;;;;;;;8.93;7.07;;;20.50;99.90;;;;;;5020077;28;20466;-42
2021/07/25 07:15:43;;;;;;;9.23;8.27;;;20.60;99.90;;;;;;5009437;28;20063;-43
2021/07/25 07:18:09;;;;;;;9.57;8.55;;;20.50;99.90;;;;;;5020431;28;20029;-43
2021/07/25 07:20:34;;;;;;;7.78;6.93;;;20.60;99.90;;;;;;5021374;28;20068;-42
2021/07/25 07:23:03;;;;;;;8.15;6.57;;;20.70;99.90;;;;;;5017250;28;20022;-43
2021/07/25 07:25:34;;;;;;;8.18;7.07;;;20.60;99.90;;;;;;5007789;28;20014;-39
2021/07/25 07:28:01;;;;;;;7.07;5.85;;;20.70;99.90;;;;;;5021789;28;20018;-39
2021/07/25 07:30:26;;;;;;;7.38;6.68;;;20.70;99.90;;;;;;5008576;28;20370;-43
2021/07/25 07:32:52;;;;;;;7.90;7.10;;;20.70;99.90;;;;;;5021363;28;20491;-46
2021/07/25 07:35:25;;;;;;;8.68;7.53;;;20.80;99.90;;;;;;4999756;28;20639;-41
2021/07/25 07:37:51;;;;;;;7.20;6.50;;;20.80;99.90;;;;;;5018039;28;20117;-42
2021/07/25 07:40:17;;;;;;;6.55;5.95;;;20.80;99.90;;;;;;5009001;28;20064;-43
2021/07/25 07:42:43;;;;;;;6.03;5.30;;;20.90;99.90;;;;;;5016798;28;20025;-41
2021/07/25 07:45:09;;;;;;;6.60;5.90;;;20.90;99.90;;;;;;5010967;28;20053;-43
2021/07/25 07:47:34;;;;;;;6.40;5.80;;;21.00;99.90;;;;;;5014018;28;20063;-42
2021/07/25 07:50:00;;;;;;;6.85;6.22;;;21.00;99.90;;;;;;5015098;28;20069;-41
2021/07/25 07:52:25;;;;;;;6.88;6.22;;;21.10;99.90;;;;;;5012053;28;20108;-42
2021/07/25 07:54:51;;;;;;;6.93;6.30;;;21.10;99.90;;;;;;5016398;28;20037;-43
2021/07/25 07:57:17;;;;;;;6.95;6.05;;;21.10;99.90;;;;;;5011151;28;20466;-43
2021/07/25 07:59:43;;;;;;;7.70;6.03;;;21.20;99.90;;;;;;5018030;28;20116;-42
2021/07/25 08:02:09;;;;;;;6.38;5.22;;;21.20;99.90;;;;;;5000454;28;20108;-45
2021/07/25 08:04:35;;;;;;;6.57;5.85;;;21.20;99.90;;;;;;5018588;28;20466;-44
2021/07/25 08:07:01;;;;;;;6.47;5.82;;;21.20;99.90;;;;;;5008429;28;20096;-45
2021/07/25 08:09:26;;;;;;;8.02;5.88;;;21.30;99.90;;;;;;5019802;28;20474;-46
2021/07/25 08:11:53;;;;;;;6.40;5.35;;;21.30;99.90;;;;;;5008637;28;20026;-42
2021/07/25 08:14:19;;;;;;;6.75;6.05;;;21.40;99.90;;;;;;5006404;28;20022;-42
2021/07/25 08:16:46;;;;;;;5.57;4.97;;;21.40;99.90;;;;;;5028401;28;20026;-44
2021/07/25 08:19:12;;;;;;;5.63;4.95;;;21.40;99.90;;;;;;5019385;28;20018;-43
2021/07/25 08:21:39;;;;;;;5.85;5.25;;;21.50;99.90;;;;;;5027363;28;20040;-44
2021/07/25 08:24:05;;;;;;;5.78;5.28;;;21.60;99.90;;;;;;5019286;28;20021;-44
2021/07/25 08:26:31;;;;;;;5.57;5.00;;;21.60;99.90;;;;;;5025962;28;20032;-44
2021/07/25 08:28:56;;;;;;;6.63;5.82;;;21.70;99.90;;;;;;5021776;28;20141;-44
2021/07/25 08:31:22;;;;;;;9.32;5.45;;;21.80;99.90;;;;;;5023439;28;20036;-41
2021/07/25 08:33:47;;;;;;;8.15;5.53;;;21.80;99.90;;;;;;5023883;28;20021;-41
2021/07/25 08:36:19;;;;;;;6.35;5.75;;;22.00;99.90;;;;;;5018809;28;20116;-43
2021/07/25 08:38:45;;;;;;;7.60;6.07;;;22.00;99.90;;;;;;5009496;28;20018;-45
2021/07/25 08:41:32;;;;;;;5.78;5.18;;;22.00;99.90;;;;;;5017216;28;20017;-43
2021/07/25 08:44:24;;;;;;;5.47;4.72;;;22.00;99.90;;;;;;5024110;28;20063;-43
2021/07/25 08:46:56;;;;;;;6.47;5.82;;;22.10;99.90;;;;;;5020912;28;20025;-43
2021/07/25 08:49:41;;;;;;;5.72;5.13;;;22.20;99.90;;;;;;5012058;28;20037;-44
2021/07/25 08:52:16;;;;;;;5.57;5.07;;;22.20;99.90;;;;;;5014513;28;20050;-45
2021/07/25 08:54:43;;;;;;;6.25;5.30;;;22.30;99.90;;;;;;5014761;28;20116;-44
2021/07/25 08:57:13;;;;;;;7.65;5.40;;;22.20;99.90;;;;;;5014862;28;20041;-46
2021/07/25 08:59:42;;;;;;;5.00;4.50;;;22.30;99.90;;;;;;5012223;28;20026;-41
2021/07/25 09:02:15;;;;;;;5.45;4.95;;;22.30;99.90;;;;;;5017239;28;20026;-44
2021/07/25 09:04:40;;;;;;;6.28;5.40;;;22.40;99.90;;;;;;5010953;28;20156;-43
2021/07/25 09:07:07;;;;;;;6.10;5.43;;;22.40;99.90;;;;;;5018124;28;20536;-39
2021/07/25 09:09:35;;;;;;;6.32;5.35;;;22.50;99.90;;;;;;5003646;28;20042;-43
2021/07/25 09:12:00;;;;;;;6.10;5.43;;;22.50;99.90;;;;;;5020881;28;20033;-44
2021/07/25 09:14:26;;;;;;;5.78;5.18;;;22.50;99.90;;;;;;5012800;28;20034;-45
2021/07/25 09:16:52;;;;;;;6.35;5.72;;;22.60;99.90;;;;;;5023377;28;20107;-43
2021/07/25 09:19:18;;;;;;;8.63;6.50;;;22.60;99.90;;;;;;5013774;28;20109;-42
2021/07/25 09:21:46;;;;;;;6.38;5.75;;;22.60;99.90;;;;;;5019501;28;20380;-41
2021/07/25 09:24:27;;;;;;;5.63;5.07;;;22.60;99.90;;;;;;5030894;28;20084;-44
2021/07/25 09:26:56;;;;;;;5.68;5.15;;;22.60;99.90;;;;;;5015924;28;20025;-43
2021/07/25 09:29:33;;;;;;;4.90;4.40;;;22.60;99.90;;;;;;4993052;28;20104;-41
2021/07/25 09:32:15;;;;;;;5.50;4.57;;;22.70;99.90;;;;;;5023673;28;20132;-44
2021/07/25 09:34:49;;;;;;;5.47;4.63;;;22.80;99.90;;;;;;5011140;28;20412;-43
2021/07/25 09:37:19;;;;;;;5.00;4.50;;;22.90;99.90;;;;;;5025137;28;20489;-45
2021/07/25 09:39:47;;;;;;;6.78;5.25;;;22.90;99.90;;;;;;5011610;28;20037;-45
2021/07/25 09:42:14;;;;;;;5.70;5.10;;;23.00;99.90;;;;;;5023724;28;20026;-41
2021/07/25 09:44:45;;;;;;;8.02;5.50;;;23.00;99.90;;;;;;5011467;28;20077;-41
2021/07/25 09:47:30;;;;;;;4.28;3.88;;;23.10;99.90;;;;;;5023794;28;20025;-43
2021/07/25 09:49:56;;;;;;;5.07;3.60;;;23.10;99.90;;;;;;4992183;28;20030;-45
2021/07/25 09:52:29;;;;;;;4.55;3.78;;;23.10;99.90;;;;;;5019957;28;20040;-43
2021/07/25 09:54:59;;;;;;;4.68;3.70;;;23.30;99.90;;;;;;4992780;28;20038;-43
2021/07/25 09:57:25;;;;;;;6.43;4.80;;;23.30;99.90;;;;;;5018512;28;20025;-46
2021/07/25 09:59:56;;;;;;;5.65;5.05;;;23.40;99.50;;;;;;5012623;28;20049;-42
2021/07/25 10:02:49;;;;;;;5.88;5.38;;;23.50;99.30;;;;;;5021209;28;20079;-43
2021/07/25 10:05:16;;;;;;;5.15;4.65;;;23.60;98.90;;;;;;4988767;28;20050;-45
2021/07/25 10:07:43;;;;;;;5.18;4.68;;;23.70;98.60;;;;;;5016456;28;20034;-43
2021/07/25 10:10:13;;;;;;;5.90;4.88;;;23.90;98.60;;;;;;5013126;28;20037;-44
2021/07/25 10:12:41;;;;;;;4.70;4.30;;;24.00;98.40;;;;;;5019718;28;20116;-44
2021/07/25 10:15:19;;;;;;;6.00;4.47;;;24.20;98.60;;;;;;5014112;28;20512;-43
2021/07/25 10:17:47;;;;;;;5.28;4.15;;;24.30;98.10;;;;;;5017298;28;20029;-43
2021/07/25 10:20:17;;;;;;;5.78;4.70;;;24.50;98.10;;;;;;5023441;28;20027;-44
2021/07/25 10:22:48;;;;;;;8.02;5.57;;;24.50;98.00;;;;;;5023078;28;20068;-42
2021/07/25 10:25:15;;;;;;;6.65;6.03;;;24.60;98.00;;;;;;5025970;28;20436;-42
2021/07/25 10:27:45;;;;;;;7.00;6.30;;;24.70;97.80;;;;;;5024138;28;20022;-42
2021/07/25 10:30:11;;;;;;;7.97;5.38;;;24.60;97.60;;;;;;5024456;28;20412;-41
2021/07/25 10:32:38;;;;;;;5.70;5.13;;;24.60;97.70;;;;;;5027149;28;20025;-43
2021/07/25 10:35:07;;;;;;;6.72;5.00;;;24.60;97.70;;;;;;5021533;28;20025;-44
2021/07/25 10:37:36;;;;;;;5.03;4.53;;;24.60;97.70;;;;;;5028806;28;20492;-43
2021/07/25 10:40:07;;;;;;;5.78;5.28;;;24.60;97.80;;;;;;5009953;28;20469;-42
2021/07/25 10:42:40;;;;;;;6.13;5.40;;;24.60;97.60;;;;;;5028134;28;20026;-44
2021/07/25 10:45:09;;;;;;;7.40;4.70;;;24.60;97.60;;;;;;5019896;28;20424;-41
2021/07/25 10:47:35;;;;;;;5.00;4.38;;;24.60;97.60;;;;;;5028063;28;20120;-43
2021/07/25 10:50:04;;;;;;;4.90;4.25;;;24.50;97.60;;;;;;5018416;28;20105;-45
2021/07/25 10:52:55;;;;;;;5.43;4.45;;;24.50;97.50;;;;;;5030142;28;20013;-43
2021/07/25 10:55:42;;;;;;;4.68;4.00;;;24.50;97.50;;;;;;5020730;28;20018;-44
2021/07/25 10:58:08;;;;;;;5.30;4.28;;;24.50;97.60;;;;;;5012636;28;20032;-45
2021/07/25 11:00:45;;;;;;;4.80;3.97;;;24.50;97.80;;;;;;5021660;28;20113;-44
2021/07/25 11:03:35;;;;;;;4.88;4.03;;;24.50;97.50;;;;;;5011590;28;20497;-43
2021/07/25 11:06:11;;;;;;;4.00;3.45;;;24.60;97.50;;;;;;5010683;28;20042;-44
2021/07/25 11:08:44;;;;;;;4.72;3.22;;;24.60;97.50;;;;;;5027241;28;20034;-44
2021/07/25 11:11:39;;;;;;;4.35;3.95;;;24.80;97.30;;;;;;5009541;28;20400;-43
2021/07/25 11:14:06;;;;;;;6.03;4.57;;;25.00;97.10;;;;;;5026498;28;20025;-43
2021/07/25 11:16:32;;;;;;;3.63;3.33;;;25.10;97.00;;;;;;5021527;28;20087;-43
2021/07/25 11:19:24;;;;;;;4.70;4.20;;;25.30;96.90;;;;;;5028112;28;20484;-42
2021/07/25 11:21:53;;;;;;;4.93;4.18;;;25.50;96.80;;;;;;4991184;28;20533;-44
2021/07/25 11:24:26;;;;;;;4.13;3.72;;;25.70;96.50;;;;;;5004467;28;20105;-43
2021/07/25 11:27:03;;;;;;;4.25;3.55;;;26.00;96.40;;;;;;5021434;28;20037;-43
2021/07/25 11:29:31;;;;;;;5.03;4.53;;;26.20;95.80;;;;;;5026689;28;20103;-42
2021/07/25 11:31:57;;;;;;;4.30;3.90;;;26.40;95.40;;;;;;5020088;28;20088;-43
2021/07/25 11:34:29;;;;;;;5.00;4.50;;;26.50;95.20;;;;;;5026981;28;20022;-42
2021/07/25 11:36:57;;;;;;;5.22;3.55;;;26.60;95.10;;;;;;5008604;28;20032;-44
2021/07/25 11:39:23;;;;;;;4.82;3.50;;;26.60;95.20;;;;;;5027501;28;20109;-43
2021/07/25 11:41:49;;;;;;;3.78;3.30;;;26.50;94.80;;;;;;5018320;28;20028;-45
2021/07/25 11:44:15;;;;;;;5.68;3.58;;;26.40;94.90;;;;;;5030289;28;20100;-44
2021/07/25 11:46:45;;;;;;;4.35;3.95;;;26.30;95.10;;;;;;5016515;28;20022;-42
2021/07/25 11:49:24;;;;;;;4.15;3.75;;;26.30;95.10;;;;;;5029895;28;20117;-45
2021/07/25 11:51:50;;;;;;;3.85;3.53;;;26.20;95.10;;;;;;5015944;28;20028;-45
2021/07/25 11:54:37;;;;;;;4.30;3.90;;;26.20;95.10;;;;;;5029939;28;20067;-43
2021/07/25 11:57:09;;;;;;;5.13;3.53;;;26.30;94.90;;;;;;5017249;28;20036;-42
2021/07/25 11:59:38;;;;;;;4.18;3.78;;;26.40;94.80;;;;;;5028712;28;20041;-45
2021/07/25 12:02:08;;;;;;;4.68;3.72;;;26.50;94.60;;;;;;5013818;28;20032;-38
2021/07/25 12:04:44;;;;;;;3.67;3.30;;;26.50;94.60;;;;;;4997192;28;20030;-38
2021/07/25 12:07:13;;;;;;;3.50;3.20;;;26.40;94.60;;;;;;5004532;28;20085;-42
2021/07/25 12:09:42;;;;;;;4.43;3.33;;;26.50;94.60;;;;;;4998319;28;20113;-45
2021/07/25 12:12:13;;;;;;;6.22;3.30;;;26.50;94.30;;;;;;5009943;28;20389;-44
2021/07/25 12:14:41;;;;;;;3.85;3.45;;;26.50;94.20;;;;;;4997697;28;20322;-41
2021/07/25 12:17:08;;;;;;;3.50;3.20;;;26.50;94.20;;;;;;5002789;28;20054;-44
2021/07/25 12:19:43;;;;;;;3.30;3.00;;;26.50;94.00;;;;;;5009528;28;20033;-44
2021/07/25 12:22:11;;;;;;;3.75;3.10;;;26.40;94.00;;;;;;5011846;28;20053;-43
2021/07/25 12:24:49;;;;;;;4.85;3.17;;;26.30;93.90;;;;;;4996190;28;20033;-44
2021/07/25 12:27:31;;;;;;;3.42;3.13;;;26.30;94.10;;;;;;5011944;28;20025;-44
2021/07/25 12:30:14;;;;;;;3.30;3.00;;;26.30;94.20;;;;;;5009079;28;20537;-43
2021/07/25 12:32:41;;;;;;;5.15;3.40;;;26.20;94.20;;;;;;5019753;28;20028;-44
2021/07/25 12:35:09;;;;;;;3.40;3.10;;;26.20;94.10;;;;;;5008157;28;20029;-43
2021/07/25 12:37:46;;;;;;;3.95;3.13;;;26.30;94.10;;;;;;5018190;28;20021;-42
2021/07/25 12:40:28;;;;;;;4.90;3.20;;;26.20;94.20;;;;;;5010142;28;20474;-44
2021/07/25 12:42:56;;;;;;;3.75;2.60;;;26.30;94.10;;;;;;5019135;28;20030;-44
2021/07/25 12:45:26;;;;;;;4.78;3.17;;;26.30;94.00;;;;;;5010548;28;20091;-42
2021/07/25 12:48:11;;;;;;;4.05;3.03;;;26.40;93.90;;;;;;5017377;28;20461;-45